sensor_id;sensor_type;location;lat;lon;timestamp;P1;durP1;ratioP1;P2;durP2;ratioP2
41643;SDS011;44236;48.098;11.582;2023-02-15T00:01:28;3.97;;;2.58;;
41643;SDS011;44236;48.098;11.582;2023-02-15T00:03:54;3.70;;;2.00;;
41643;SDS011;44236;48.098;11.582;2023-02-15T00:06:20;3.75;;;1.83;;
41643;SDS011;44236;48.098;11.582;2023-02-15T00:08:46;9.07;;;1.90;;
41643;SDS011;44236;48.098;11.582;2023-02-15T00:11:13;6.75;;;1.98;;
41643;SDS011;44236;48.098;11.582;2023-02-15T00:13:40;3.22;;;1.88;;
41643;SDS011;44236;48.098;11.582;2023-02-15T00:16:06;2.72;;;1.83;;
41643;SDS011;44236;48.098;11.582;2023-02-15T00:18:33;3.95;;;2.22;;
41643;SDS011;44236;48.098;11.582;2023-02-15T00:21:03;2.90;;;1.83;;
41643;SDS011;44236;48.098;11.582;2023-02-15T00:23:32;3.72;;;1.90;;
41643;SDS011;44236;48.098;11.582;2023-02-15T00:26:08;3.60;;;2.00;;
41643;SDS011;44236;48.098;11.582;2023-02-15T00:28:35;2.45;;;1.67;;
41643;SDS011;44236;48.098;11.582;2023-02-15T00:31:08;4.82;;;1.55;;
41643;SDS011;44236;48.098;11.582;2023-02-15T00:33:36;4.57;;;1.90;;
41643;SDS011;44236;48.098;11.582;2023-02-15T00:36:03;3.33;;;1.73;;
41643;SDS011;44236;48.098;11.582;2023-02-15T00:38:30;4.25;;;1.60;;
41643;SDS011;44236;48.098;11.582;2023-02-15T00:40:57;2.95;;;1.50;;
41643;SDS011;44236;48.098;11.582;2023-02-15T00:43:24;4.43;;;2.00;;
41643;SDS011;44236;48.098;11.582;2023-02-15T00:45:51;4.75;;;1.80;;
41643;SDS011;44236;48.098;11.582;2023-02-15T00:48:17;3.45;;;1.55;;
41643;SDS011;44236;48.098;11.582;2023-02-15T00:50:46;2.90;;;1.60;;
41643;SDS011;44236;48.098;11.582;2023-02-15T00:53:14;4.45;;;2.03;;
41643;SDS011;44236;48.098;11.582;2023-02-15T00:55:40;10.02;;;2.03;;
41643;SDS011;44236;48.098;11.582;2023-02-15T00:58:06;2.83;;;1.80;;
41643;SDS011;44236;48.098;11.582;2023-02-15T01:00:32;2.78;;;1.58;;
41643;SDS011;44236;48.098;11.582;2023-02-15T01:02:58;4.00;;;1.83;;
41643;SDS011;44236;48.098;11.582;2023-02-15T01:05:24;2.33;;;1.40;;
41643;SDS011;44236;48.098;11.582;2023-02-15T01:07:49;4.30;;;1.75;;
41643;SDS011;44236;48.098;11.582;2023-02-15T01:10:15;4.32;;;1.88;;
41643;SDS011;44236;48.098;11.582;2023-02-15T01:12:41;2.22;;;1.50;;
41643;SDS011;44236;48.098;11.582;2023-02-15T01:15:07;2.72;;;1.70;;
41643;SDS011;44236;48.098;11.582;2023-02-15T01:17:33;2.55;;;1.40;;
41643;SDS011;44236;48.098;11.582;2023-02-15T01:19:58;3.40;;;2.03;;
41643;SDS011;44236;48.098;11.582;2023-02-15T01:22:24;1.80;;;1.30;;
41643;SDS011;44236;48.098;11.582;2023-02-15T01:24:50;1.98;;;1.30;;
41643;SDS011;44236;48.098;11.582;2023-02-15T01:27:16;4.45;;;1.58;;
41643;SDS011;44236;48.098;11.582;2023-02-15T01:29:41;2.55;;;1.30;;
41643;SDS011;44236;48.098;11.582;2023-02-15T01:32:07;4.72;;;1.52;;
41643;SDS011;44236;48.098;11.582;2023-02-15T01:34:32;2.30;;;1.50;;
41643;SDS011;44236;48.098;11.582;2023-02-15T01:36:58;2.05;;;1.38;;
41643;SDS011;44236;48.098;11.582;2023-02-15T01:39:24;2.38;;;1.40;;
41643;SDS011;44236;48.098;11.582;2023-02-15T01:41:49;2.30;;;1.27;;
41643;SDS011;44236;48.098;11.582;2023-02-15T01:47:18;6.07;;;1.50;;
41643;SDS011;44236;48.098;11.582;2023-02-15T01:50:06;2.72;;;1.33;;
41643;SDS011;44236;48.098;11.582;2023-02-15T01:52:34;2.17;;;1.50;;
41643;SDS011;44236;48.098;11.582;2023-02-15T01:55:04;3.38;;;1.90;;
41643;SDS011;44236;48.098;11.582;2023-02-15T01:57:31;2.35;;;1.73;;
41643;SDS011;44236;48.098;11.582;2023-02-15T01:59:58;2.75;;;1.50;;
41643;SDS011;44236;48.098;11.582;2023-02-15T02:02:26;2.38;;;1.48;;
41643;SDS011;44236;48.098;11.582;2023-02-15T02:04:54;2.67;;;1.42;;
41643;SDS011;44236;48.098;11.582;2023-02-15T02:07:24;3.03;;;1.75;;
41643;SDS011;44236;48.098;11.582;2023-02-15T02:09:53;2.08;;;1.20;;
41643;SDS011;44236;48.098;11.582;2023-02-15T02:12:19;2.58;;;1.52;;
41643;SDS011;44236;48.098;11.582;2023-02-15T02:14:47;3.28;;;1.50;;
41643;SDS011;44236;48.098;11.582;2023-02-15T02:22:53;3.25;;;1.42;;
41643;SDS011;44236;48.098;11.582;2023-02-15T02:28:34;3.08;;;1.48;;
41643;SDS011;44236;48.098;11.582;2023-02-15T02:31:37;2.25;;;1.38;;
41643;SDS011;44236;48.098;11.582;2023-02-15T02:34:29;2.67;;;1.38;;
41643;SDS011;44236;48.098;11.582;2023-02-15T02:37:26;2.50;;;1.45;;
41643;SDS011;44236;48.098;11.582;2023-02-15T02:40:08;2.40;;;1.60;;
41643;SDS011;44236;48.098;11.582;2023-02-15T02:42:44;2.55;;;1.55;;
41643;SDS011;44236;48.098;11.582;2023-02-15T02:45:28;2.63;;;1.50;;
41643;SDS011;44236;48.098;11.582;2023-02-15T02:48:05;2.92;;;1.60;;
41643;SDS011;44236;48.098;11.582;2023-02-15T02:50:38;2.70;;;1.60;;
41643;SDS011;44236;48.098;11.582;2023-02-15T02:53:05;2.25;;;1.63;;
41643;SDS011;44236;48.098;11.582;2023-02-15T03:03:56;2.88;;;1.58;;
41643;SDS011;44236;48.098;11.582;2023-02-15T03:09:19;2.10;;;1.40;;
41643;SDS011;44236;48.098;11.582;2023-02-15T03:12:06;2.85;;;1.70;;
41643;SDS011;44236;48.098;11.582;2023-02-15T03:14:54;7.03;;;1.65;;
41643;SDS011;44236;48.098;11.582;2023-02-15T03:17:25;2.63;;;1.55;;
41643;SDS011;44236;48.098;11.582;2023-02-15T03:19:57;2.20;;;1.40;;
41643;SDS011;44236;48.098;11.582;2023-02-15T03:22:28;3.33;;;1.50;;
41643;SDS011;44236;48.098;11.582;2023-02-15T03:25:11;2.97;;;1.58;;
41643;SDS011;44236;48.098;11.582;2023-02-15T03:27:54;2.38;;;1.50;;
41643;SDS011;44236;48.098;11.582;2023-02-15T03:30:24;3.42;;;1.80;;
41643;SDS011;44236;48.098;11.582;2023-02-15T03:32:51;3.08;;;1.58;;
41643;SDS011;44236;48.098;11.582;2023-02-15T03:35:19;3.55;;;2.10;;
41643;SDS011;44236;48.098;11.582;2023-02-15T03:37:59;3.60;;;1.45;;
41643;SDS011;44236;48.098;11.582;2023-02-15T03:40:28;2.97;;;1.60;;
41643;SDS011;44236;48.098;11.582;2023-02-15T03:46:12;2.80;;;1.63;;
41643;SDS011;44236;48.098;11.582;2023-02-15T03:48:48;4.03;;;1.65;;
41643;SDS011;44236;48.098;11.582;2023-02-15T03:56:30;2.60;;;1.48;;
41643;SDS011;44236;48.098;11.582;2023-02-15T03:58:56;2.58;;;1.58;;
41643;SDS011;44236;48.098;11.582;2023-02-15T04:01:40;3.15;;;1.55;;
41643;SDS011;44236;48.098;11.582;2023-02-15T04:04:39;2.67;;;1.55;;
41643;SDS011;44236;48.098;11.582;2023-02-15T04:07:08;2.47;;;1.45;;
41643;SDS011;44236;48.098;11.582;2023-02-15T04:09:34;6.72;;;1.80;;
41643;SDS011;44236;48.098;11.582;2023-02-15T04:12:18;2.42;;;1.45;;
41643;SDS011;44236;48.098;11.582;2023-02-15T04:14:44;3.30;;;1.30;;
41643;SDS011;44236;48.098;11.582;2023-02-15T04:17:29;2.33;;;1.58;;
41643;SDS011;44236;48.098;11.582;2023-02-15T04:19:54;3.13;;;1.50;;
41643;SDS011;44236;48.098;11.582;2023-02-15T04:22:39;5.85;;;1.70;;
41643;SDS011;44236;48.098;11.582;2023-02-15T04:25:24;3.38;;;1.50;;
41643;SDS011;44236;48.098;11.582;2023-02-15T04:27:50;3.30;;;1.60;;
41643;SDS011;44236;48.098;11.582;2023-02-15T04:30:18;4.13;;;1.42;;
41643;SDS011;44236;48.098;11.582;2023-02-15T04:32:46;4.85;;;1.80;;
41643;SDS011;44236;48.098;11.582;2023-02-15T04:35:12;3.13;;;1.38;;
41643;SDS011;44236;48.098;11.582;2023-02-15T04:37:39;6.03;;;1.80;;
41643;SDS011;44236;48.098;11.582;2023-02-15T04:40:06;5.07;;;1.67;;
41643;SDS011;44236;48.098;11.582;2023-02-15T04:42:34;4.25;;;2.08;;
41643;SDS011;44236;48.098;11.582;2023-02-15T04:44:59;6.78;;;1.63;;
41643;SDS011;44236;48.098;11.582;2023-02-15T04:47:25;3.28;;;1.70;;
41643;SDS011;44236;48.098;11.582;2023-02-15T04:49:50;2.63;;;1.50;;
41643;SDS011;44236;48.098;11.582;2023-02-15T04:52:16;2.72;;;1.52;;
41643;SDS011;44236;48.098;11.582;2023-02-15T04:54:44;4.15;;;1.60;;
41643;SDS011;44236;48.098;11.582;2023-02-15T04:57:10;2.17;;;1.27;;
41643;SDS011;44236;48.098;11.582;2023-02-15T04:59:37;2.35;;;1.45;;
41643;SDS011;44236;48.098;11.582;2023-02-15T05:02:02;5.65;;;1.58;;
41643;SDS011;44236;48.098;11.582;2023-02-15T05:04:28;8.55;;;1.80;;
41643;SDS011;44236;48.098;11.582;2023-02-15T05:06:54;8.10;;;1.42;;
41643;SDS011;44236;48.098;11.582;2023-02-15T05:09:19;6.40;;;1.73;;
41643;SDS011;44236;48.098;11.582;2023-02-15T05:11:45;2.70;;;1.50;;
41643;SDS011;44236;48.098;11.582;2023-02-15T05:14:11;2.97;;;1.70;;
41643;SDS011;44236;48.098;11.582;2023-02-15T05:16:37;4.38;;;1.63;;
41643;SDS011;44236;48.098;11.582;2023-02-15T05:19:03;3.13;;;1.60;;
41643;SDS011;44236;48.098;11.582;2023-02-15T05:21:29;4.28;;;1.80;;
41643;SDS011;44236;48.098;11.582;2023-02-15T05:23:55;5.07;;;1.48;;
41643;SDS011;44236;48.098;11.582;2023-02-15T05:26:22;3.90;;;2.00;;
41643;SDS011;44236;48.098;11.582;2023-02-15T05:29:07;3.53;;;1.85;;
41643;SDS011;44236;48.098;11.582;2023-02-15T05:31:33;3.33;;;1.65;;
41643;SDS011;44236;48.098;11.582;2023-02-15T05:33:59;3.13;;;1.90;;
41643;SDS011;44236;48.098;11.582;2023-02-15T05:36:25;3.25;;;1.60;;
41643;SDS011;44236;48.098;11.582;2023-02-15T05:38:51;3.28;;;1.60;;
41643;SDS011;44236;48.098;11.582;2023-02-15T05:41:16;3.05;;;1.70;;
41643;SDS011;44236;48.098;11.582;2023-02-15T05:43:42;2.38;;;1.55;;
41643;SDS011;44236;48.098;11.582;2023-02-15T05:46:08;4.80;;;1.55;;
41643;SDS011;44236;48.098;11.582;2023-02-15T05:48:35;2.97;;;1.70;;
41643;SDS011;44236;48.098;11.582;2023-02-15T05:51:05;6.57;;;1.70;;
41643;SDS011;44236;48.098;11.582;2023-02-15T05:53:33;2.80;;;1.65;;
41643;SDS011;44236;48.098;11.582;2023-02-15T05:56:01;3.35;;;2.10;;
41643;SDS011;44236;48.098;11.582;2023-02-15T05:58:31;3.78;;;2.10;;
41643;SDS011;44236;48.098;11.582;2023-02-15T06:01:10;3.78;;;1.88;;
41643;SDS011;44236;48.098;11.582;2023-02-15T06:03:37;4.70;;;1.85;;
41643;SDS011;44236;48.098;11.582;2023-02-15T06:06:03;3.08;;;1.92;;
41643;SDS011;44236;48.098;11.582;2023-02-15T06:08:29;3.35;;;2.15;;
41643;SDS011;44236;48.098;11.582;2023-02-15T06:10:56;3.97;;;2.15;;
41643;SDS011;44236;48.098;11.582;2023-02-15T06:13:22;6.05;;;2.25;;
41643;SDS011;44236;48.098;11.582;2023-02-15T06:15:50;10.25;;;2.47;;
41643;SDS011;44236;48.098;11.582;2023-02-15T06:18:16;11.30;;;2.28;;
41643;SDS011;44236;48.098;11.582;2023-02-15T06:20:42;9.75;;;2.35;;
41643;SDS011;44236;48.098;11.582;2023-02-15T06:23:09;7.38;;;2.58;;
41643;SDS011;44236;48.098;11.582;2023-02-15T06:25:35;6.43;;;2.50;;
41643;SDS011;44236;48.098;11.582;2023-02-15T06:28:01;9.60;;;2.75;;
41643;SDS011;44236;48.098;11.582;2023-02-15T06:30:26;5.85;;;2.47;;
41643;SDS011;44236;48.098;11.582;2023-02-15T06:32:52;4.75;;;2.20;;
41643;SDS011;44236;48.098;11.582;2023-02-15T06:35:17;8.18;;;2.65;;
41643;SDS011;44236;48.098;11.582;2023-02-15T06:37:44;4.10;;;2.28;;
41643;SDS011;44236;48.098;11.582;2023-02-15T06:40:10;5.47;;;2.58;;
41643;SDS011;44236;48.098;11.582;2023-02-15T06:42:36;4.90;;;2.50;;
41643;SDS011;44236;48.098;11.582;2023-02-15T06:45:01;6.30;;;2.65;;
41643;SDS011;44236;48.098;11.582;2023-02-15T06:47:27;5.88;;;2.50;;
41643;SDS011;44236;48.098;11.582;2023-02-15T06:49:53;6.05;;;2.72;;
41643;SDS011;44236;48.098;11.582;2023-02-15T06:52:18;4.43;;;2.40;;
41643;SDS011;44236;48.098;11.582;2023-02-15T06:54:44;5.13;;;2.13;;
41643;SDS011;44236;48.098;11.582;2023-02-15T06:57:10;5.72;;;2.70;;
41643;SDS011;44236;48.098;11.582;2023-02-15T06:59:35;5.43;;;2.50;;
41643;SDS011;44236;48.098;11.582;2023-02-15T07:02:01;7.30;;;2.72;;
41643;SDS011;44236;48.098;11.582;2023-02-15T07:04:26;5.38;;;3.00;;
41643;SDS011;44236;48.098;11.582;2023-02-15T07:06:54;4.60;;;2.17;;
41643;SDS011;44236;48.098;11.582;2023-02-15T07:09:20;4.95;;;2.70;;
41643;SDS011;44236;48.098;11.582;2023-02-15T07:11:46;4.60;;;2.70;;
41643;SDS011;44236;48.098;11.582;2023-02-15T07:14:30;4.28;;;2.40;;
41643;SDS011;44236;48.098;11.582;2023-02-15T07:16:55;5.55;;;2.95;;
41643;SDS011;44236;48.098;11.582;2023-02-15T07:19:21;4.40;;;2.83;;
41643;SDS011;44236;48.098;11.582;2023-02-15T07:21:47;7.35;;;3.22;;
41643;SDS011;44236;48.098;11.582;2023-02-15T07:24:13;5.13;;;3.25;;
41643;SDS011;44236;48.098;11.582;2023-02-15T07:26:39;5.47;;;3.00;;
41643;SDS011;44236;48.098;11.582;2023-02-15T07:29:04;119.07;;;8.90;;
41643;SDS011;44236;48.098;11.582;2023-02-15T07:31:30;9.82;;;4.00;;
41643;SDS011;44236;48.098;11.582;2023-02-15T07:33:56;15.45;;;3.55;;
41643;SDS011;44236;48.098;11.582;2023-02-15T07:36:22;12.75;;;3.33;;
41643;SDS011;44236;48.098;11.582;2023-02-15T07:38:47;7.30;;;3.95;;
41643;SDS011;44236;48.098;11.582;2023-02-15T07:41:15;15.68;;;4.43;;
41643;SDS011;44236;48.098;11.582;2023-02-15T07:43:42;12.50;;;3.85;;
41643;SDS011;44236;48.098;11.582;2023-02-15T07:46:10;13.63;;;4.20;;
41643;SDS011;44236;48.098;11.582;2023-02-15T07:48:38;12.45;;;3.90;;
41643;SDS011;44236;48.098;11.582;2023-02-15T07:51:05;16.67;;;3.67;;
41643;SDS011;44236;48.098;11.582;2023-02-15T07:53:32;14.27;;;3.80;;
41643;SDS011;44236;48.098;11.582;2023-02-15T07:56:02;9.43;;;3.92;;
41643;SDS011;44236;48.098;11.582;2023-02-15T07:58:29;11.05;;;3.92;;
41643;SDS011;44236;48.098;11.582;2023-02-15T08:01:14;24.83;;;4.53;;
41643;SDS011;44236;48.098;11.582;2023-02-15T08:03:40;8.43;;;3.28;;
41643;SDS011;44236;48.098;11.582;2023-02-15T08:06:06;8.93;;;3.83;;
41643;SDS011;44236;48.098;11.582;2023-02-15T08:08:33;11.27;;;3.80;;
41643;SDS011;44236;48.098;11.582;2023-02-15T08:11:04;9.50;;;3.63;;
41643;SDS011;44236;48.098;11.582;2023-02-15T08:18:59;6.57;;;3.72;;
41643;SDS011;44236;48.098;11.582;2023-02-15T08:21:40;9.00;;;4.07;;
41643;SDS011;44236;48.098;11.582;2023-02-15T08:24:08;7.57;;;3.90;;
41643;SDS011;44236;48.098;11.582;2023-02-15T08:26:34;7.97;;;3.67;;
41643;SDS011;44236;48.098;11.582;2023-02-15T08:29:01;7.35;;;4.15;;
41643;SDS011;44236;48.098;11.582;2023-02-15T08:31:28;11.27;;;3.45;;
41643;SDS011;44236;48.098;11.582;2023-02-15T08:33:54;10.35;;;4.40;;
41643;SDS011;44236;48.098;11.582;2023-02-15T08:36:22;7.63;;;3.85;;
41643;SDS011;44236;48.098;11.582;2023-02-15T08:38:50;10.75;;;4.57;;
41643;SDS011;44236;48.098;11.582;2023-02-15T08:43:41;8.25;;;3.83;;
41643;SDS011;44236;48.098;11.582;2023-02-15T08:46:08;8.05;;;3.92;;
41643;SDS011;44236;48.098;11.582;2023-02-15T08:48:34;10.88;;;3.92;;
41643;SDS011;44236;48.098;11.582;2023-02-15T08:51:07;9.93;;;4.40;;
41643;SDS011;44236;48.098;11.582;2023-02-15T08:53:40;7.63;;;4.03;;
41643;SDS011;44236;48.098;11.582;2023-02-15T08:56:08;8.95;;;4.13;;
41643;SDS011;44236;48.098;11.582;2023-02-15T08:58:35;7.22;;;4.00;;
41643;SDS011;44236;48.098;11.582;2023-02-15T09:01:07;7.43;;;4.40;;
41643;SDS011;44236;48.098;11.582;2023-02-15T09:03:38;10.02;;;3.92;;
41643;SDS011;44236;48.098;11.582;2023-02-15T09:06:04;9.63;;;4.10;;
41643;SDS011;44236;48.098;11.582;2023-02-15T09:08:30;8.23;;;3.90;;
41643;SDS011;44236;48.098;11.582;2023-02-15T09:13:36;10.82;;;4.85;;
41643;SDS011;44236;48.098;11.582;2023-02-15T09:16:04;8.48;;;4.68;;
41643;SDS011;44236;48.098;11.582;2023-02-15T09:18:32;6.65;;;3.60;;
41643;SDS011;44236;48.098;11.582;2023-02-15T09:21:08;7.65;;;4.03;;
41643;SDS011;44236;48.098;11.582;2023-02-15T09:23:41;8.63;;;4.30;;
41643;SDS011;44236;48.098;11.582;2023-02-15T09:26:10;5.43;;;3.30;;
41643;SDS011;44236;48.098;11.582;2023-02-15T09:28:37;7.70;;;3.78;;
41643;SDS011;44236;48.098;11.582;2023-02-15T09:31:13;8.70;;;3.65;;
41643;SDS011;44236;48.098;11.582;2023-02-15T09:33:41;8.20;;;3.65;;
41643;SDS011;44236;48.098;11.582;2023-02-15T09:36:18;7.43;;;3.97;;
41643;SDS011;44236;48.098;11.582;2023-02-15T09:38:47;5.35;;;3.35;;
41643;SDS011;44236;48.098;11.582;2023-02-15T09:49:53;10.45;;;3.50;;
41643;SDS011;44236;48.098;11.582;2023-02-15T09:57:56;6.55;;;4.38;;
41643;SDS011;44236;48.098;11.582;2023-02-15T10:00:45;6.82;;;4.00;;
41643;SDS011;44236;48.098;11.582;2023-02-15T10:03:24;6.07;;;3.92;;
41643;SDS011;44236;48.098;11.582;2023-02-15T10:06:11;5.07;;;2.90;;
41643;SDS011;44236;48.098;11.582;2023-02-15T10:11:26;6.15;;;3.22;;
41643;SDS011;44236;48.098;11.582;2023-02-15T10:20:07;6.90;;;3.78;;
41643;SDS011;44236;48.098;11.582;2023-02-15T10:26:21;8.00;;;4.03;;
41643;SDS011;44236;48.098;11.582;2023-02-15T10:29:14;5.40;;;3.40;;
41643;SDS011;44236;48.098;11.582;2023-02-15T10:32:38;6.20;;;3.88;;
41643;SDS011;44236;48.098;11.582;2023-02-15T10:34:51;6.15;;;3.40;;
41643;SDS011;44236;48.098;11.582;2023-02-15T10:57:20;5.25;;;3.53;;
41643;SDS011;44236;48.098;11.582;2023-02-15T11:05:38;4.20;;;2.63;;
41643;SDS011;44236;48.098;11.582;2023-02-15T11:08:10;4.53;;;2.97;;
41643;SDS011;44236;48.098;11.582;2023-02-15T11:10:42;6.60;;;3.88;;
41643;SDS011;44236;48.098;11.582;2023-02-15T11:13:23;4.70;;;2.97;;
41643;SDS011;44236;48.098;11.582;2023-02-15T11:15:57;6.70;;;3.28;;
41643;SDS011;44236;48.098;11.582;2023-02-15T11:24:12;7.35;;;4.55;;
41643;SDS011;44236;48.098;11.582;2023-02-15T11:29:25;6.45;;;3.67;;
41643;SDS011;44236;48.098;11.582;2023-02-15T11:32:02;7.43;;;3.50;;
41643;SDS011;44236;48.098;11.582;2023-02-15T11:34:49;5.50;;;3.13;;
41643;SDS011;44236;48.098;11.582;2023-02-15T11:39:51;6.45;;;3.13;;
41643;SDS011;44236;48.098;11.582;2023-02-15T11:42:20;6.07;;;3.53;;
41643;SDS011;44236;48.098;11.582;2023-02-15T11:47:41;6.93;;;4.03;;
41643;SDS011;44236;48.098;11.582;2023-02-15T11:50:12;9.90;;;3.22;;
41643;SDS011;44236;48.098;11.582;2023-02-15T11:52:47;6.70;;;3.55;;
41643;SDS011;44236;48.098;11.582;2023-02-15T11:55:14;6.55;;;3.00;;
41643;SDS011;44236;48.098;11.582;2023-02-15T11:57:46;6.70;;;3.65;;
41643;SDS011;44236;48.098;11.582;2023-02-15T12:00:24;5.72;;;4.00;;
41643;SDS011;44236;48.098;11.582;2023-02-15T12:03:11;6.72;;;3.75;;
41643;SDS011;44236;48.098;11.582;2023-02-15T12:05:42;5.35;;;3.53;;
41643;SDS011;44236;48.098;11.582;2023-02-15T12:08:15;6.10;;;3.70;;
41643;SDS011;44236;48.098;11.582;2023-02-15T12:10:51;8.45;;;4.07;;
41643;SDS011;44236;48.098;11.582;2023-02-15T12:13:23;6.28;;;3.72;;
41643;SDS011;44236;48.098;11.582;2023-02-15T12:15:58;6.20;;;3.47;;
41643;SDS011;44236;48.098;11.582;2023-02-15T12:21:03;8.48;;;3.83;;
41643;SDS011;44236;48.098;11.582;2023-02-15T12:23:34;5.55;;;3.75;;
41643;SDS011;44236;48.098;11.582;2023-02-15T12:26:28;7.47;;;3.65;;
41643;SDS011;44236;48.098;11.582;2023-02-15T12:29:00;8.10;;;4.20;;
41643;SDS011;44236;48.098;11.582;2023-02-15T12:31:41;6.78;;;4.30;;
41643;SDS011;44236;48.098;11.582;2023-02-15T12:34:17;6.10;;;3.75;;
41643;SDS011;44236;48.098;11.582;2023-02-15T12:36:52;5.70;;;4.18;;
41643;SDS011;44236;48.098;11.582;2023-02-15T12:39:24;15.30;;;4.35;;
41643;SDS011;44236;48.098;11.582;2023-02-15T12:47:04;8.45;;;3.90;;
41643;SDS011;44236;48.098;11.582;2023-02-15T12:49:42;6.15;;;4.20;;
41643;SDS011;44236;48.098;11.582;2023-02-15T12:54:46;7.95;;;3.90;;
41643;SDS011;44236;48.098;11.582;2023-02-15T13:02:52;7.82;;;4.38;;
41643;SDS011;44236;48.098;11.582;2023-02-15T13:05:29;10.68;;;4.13;;
41643;SDS011;44236;48.098;11.582;2023-02-15T13:07:57;6.03;;;3.80;;
41643;SDS011;44236;48.098;11.582;2023-02-15T13:10:32;7.63;;;4.03;;
41643;SDS011;44236;48.098;11.582;2023-02-15T13:13:01;7.50;;;4.32;;
41643;SDS011;44236;48.098;11.582;2023-02-15T13:15:33;9.60;;;3.85;;
41643;SDS011;44236;48.098;11.582;2023-02-15T13:18:01;5.32;;;3.63;;
41643;SDS011;44236;48.098;11.582;2023-02-15T13:20:29;7.75;;;3.85;;
41643;SDS011;44236;48.098;11.582;2023-02-15T13:22:58;11.00;;;3.70;;
41643;SDS011;44236;48.098;11.582;2023-02-15T13:25:36;7.55;;;4.20;;
41643;SDS011;44236;48.098;11.582;2023-02-15T13:28:10;8.98;;;4.55;;
41643;SDS011;44236;48.098;11.582;2023-02-15T13:30:42;5.60;;;3.58;;
41643;SDS011;44236;48.098;11.582;2023-02-15T13:33:17;8.50;;;4.68;;
41643;SDS011;44236;48.098;11.582;2023-02-15T13:41:24;9.52;;;4.28;;
41643;SDS011;44236;48.098;11.582;2023-02-15T13:44:21;6.88;;;4.03;;
41643;SDS011;44236;48.098;11.582;2023-02-15T13:49:47;7.90;;;3.55;;
41643;SDS011;44236;48.098;11.582;2023-02-15T13:52:38;5.88;;;3.42;;
41643;SDS011;44236;48.098;11.582;2023-02-15T14:03:51;5.78;;;3.90;;
41643;SDS011;44236;48.098;11.582;2023-02-15T14:25:54;9.40;;;5.65;;
41643;SDS011;44236;48.098;11.582;2023-02-15T14:29:09;7.50;;;4.65;;
41643;SDS011;44236;48.098;11.582;2023-02-15T14:31:46;8.98;;;4.45;;
41643;SDS011;44236;48.098;11.582;2023-02-15T14:34:27;11.60;;;4.80;;
41643;SDS011;44236;48.098;11.582;2023-02-15T14:37:01;8.68;;;4.05;;
41643;SDS011;44236;48.098;11.582;2023-02-15T14:42:25;6.43;;;4.10;;
41643;SDS011;44236;48.098;11.582;2023-02-15T14:45:06;7.75;;;3.60;;
41643;SDS011;44236;48.098;11.582;2023-02-15T14:50:44;6.70;;;3.67;;
41643;SDS011;44236;48.098;11.582;2023-02-15T14:53:22;7.00;;;3.90;;
41643;SDS011;44236;48.098;11.582;2023-02-15T14:58:36;5.80;;;3.08;;
41643;SDS011;44236;48.098;11.582;2023-02-15T15:01:09;7.10;;;4.28;;
41643;SDS011;44236;48.098;11.582;2023-02-15T15:03:36;6.78;;;4.45;;
41643;SDS011;44236;48.098;11.582;2023-02-15T15:06:31;6.57;;;3.33;;
41643;SDS011;44236;48.098;11.582;2023-02-15T15:11:50;6.20;;;3.80;;
41643;SDS011;44236;48.098;11.582;2023-02-15T15:16:57;10.73;;;5.90;;
41643;SDS011;44236;48.098;11.582;2023-02-15T15:22:18;10.55;;;4.88;;
41643;SDS011;44236;48.098;11.582;2023-02-15T15:24:49;9.32;;;4.95;;
41643;SDS011;44236;48.098;11.582;2023-02-15T15:32:47;8.05;;;5.07;;
41643;SDS011;44236;48.098;11.582;2023-02-15T15:43:24;5.82;;;3.97;;
41643;SDS011;44236;48.098;11.582;2023-02-15T15:46:34;8.48;;;4.45;;
41643;SDS011;44236;48.098;11.582;2023-02-15T15:49:21;12.95;;;5.65;;
41643;SDS011;44236;48.098;11.582;2023-02-15T15:51:53;17.15;;;8.52;;
41643;SDS011;44236;48.098;11.582;2023-02-15T15:54:23;17.42;;;9.18;;
41643;SDS011;44236;48.098;11.582;2023-02-15T15:56:55;15.55;;;9.65;;
41643;SDS011;44236;48.098;11.582;2023-02-15T16:01:52;12.23;;;8.32;;
41643;SDS011;44236;48.098;11.582;2023-02-15T16:04:29;16.83;;;7.55;;
41643;SDS011;44236;48.098;11.582;2023-02-15T16:06:57;14.50;;;6.63;;
41643;SDS011;44236;48.098;11.582;2023-02-15T16:09:26;19.20;;;6.97;;
41643;SDS011;44236;48.098;11.582;2023-02-15T16:11:53;13.20;;;7.00;;
41643;SDS011;44236;48.098;11.582;2023-02-15T16:16:54;16.67;;;5.85;;
41643;SDS011;44236;48.098;11.582;2023-02-15T16:19:23;12.40;;;5.30;;
41643;SDS011;44236;48.098;11.582;2023-02-15T16:21:53;10.45;;;5.00;;
41643;SDS011;44236;48.098;11.582;2023-02-15T16:24:42;11.48;;;5.40;;
41643;SDS011;44236;48.098;11.582;2023-02-15T16:29:58;10.05;;;4.93;;
41643;SDS011;44236;48.098;11.582;2023-02-15T16:32:41;14.52;;;4.40;;
41643;SDS011;44236;48.098;11.582;2023-02-15T16:35:13;6.97;;;4.13;;
41643;SDS011;44236;48.098;11.582;2023-02-15T16:37:40;8.32;;;4.63;;
41643;SDS011;44236;48.098;11.582;2023-02-15T16:40:06;7.40;;;4.53;;
41643;SDS011;44236;48.098;11.582;2023-02-15T16:42:50;7.45;;;4.00;;
41643;SDS011;44236;48.098;11.582;2023-02-15T16:45:19;14.85;;;4.00;;
41643;SDS011;44236;48.098;11.582;2023-02-15T16:47:48;16.05;;;4.45;;
41643;SDS011;44236;48.098;11.582;2023-02-15T16:50:18;6.13;;;3.80;;
41643;SDS011;44236;48.098;11.582;2023-02-15T16:52:47;22.63;;;4.53;;
41643;SDS011;44236;48.098;11.582;2023-02-15T16:55:23;6.13;;;3.90;;
41643;SDS011;44236;48.098;11.582;2023-02-15T16:57:55;8.88;;;4.70;;
41643;SDS011;44236;48.098;11.582;2023-02-15T17:00:25;17.70;;;6.22;;
41643;SDS011;44236;48.098;11.582;2023-02-15T17:05:32;13.77;;;5.75;;
41643;SDS011;44236;48.098;11.582;2023-02-15T17:11:03;11.40;;;5.22;;
41643;SDS011;44236;48.098;11.582;2023-02-15T17:14:09;17.80;;;5.07;;
41643;SDS011;44236;48.098;11.582;2023-02-15T17:17:14;13.88;;;4.93;;
41643;SDS011;44236;48.098;11.582;2023-02-15T17:21:59;14.52;;;5.35;;
41643;SDS011;44236;48.098;11.582;2023-02-15T17:27:05;13.73;;;5.20;;
41643;SDS011;44236;48.098;11.582;2023-02-15T17:29:38;12.90;;;6.05;;
41643;SDS011;44236;48.098;11.582;2023-02-15T17:32:10;10.68;;;5.45;;
41643;SDS011;44236;48.098;11.582;2023-02-15T17:34:41;15.20;;;5.30;;
41643;SDS011;44236;48.098;11.582;2023-02-15T17:37:23;14.85;;;5.65;;
41643;SDS011;44236;48.098;11.582;2023-02-15T17:39:53;20.92;;;5.47;;
41643;SDS011;44236;48.098;11.582;2023-02-15T17:42:19;13.65;;;4.50;;
41643;SDS011;44236;48.098;11.582;2023-02-15T17:44:47;14.73;;;5.22;;
41643;SDS011;44236;48.098;11.582;2023-02-15T17:47:15;14.63;;;5.97;;
41643;SDS011;44236;48.098;11.582;2023-02-15T17:49:43;20.88;;;6.65;;
41643;SDS011;44236;48.098;11.582;2023-02-15T17:52:11;17.00;;;5.70;;
41643;SDS011;44236;48.098;11.582;2023-02-15T17:54:38;18.10;;;4.88;;
41643;SDS011;44236;48.098;11.582;2023-02-15T17:57:23;15.52;;;5.13;;
41643;SDS011;44236;48.098;11.582;2023-02-15T17:59:50;14.85;;;5.13;;
41643;SDS011;44236;48.098;11.582;2023-02-15T18:02:35;11.63;;;4.95;;
41643;SDS011;44236;48.098;11.582;2023-02-15T18:05:20;17.67;;;5.72;;
41643;SDS011;44236;48.098;11.582;2023-02-15T18:08:07;16.25;;;5.75;;
41643;SDS011;44236;48.098;11.582;2023-02-15T18:10:57;13.30;;;5.05;;
41643;SDS011;44236;48.098;11.582;2023-02-15T18:13:42;13.93;;;4.93;;
41643;SDS011;44236;48.098;11.582;2023-02-15T18:16:10;12.07;;;5.20;;
41643;SDS011;44236;48.098;11.582;2023-02-15T18:18:47;18.02;;;4.95;;
41643;SDS011;44236;48.098;11.582;2023-02-15T18:21:13;17.20;;;5.07;;
41643;SDS011;44236;48.098;11.582;2023-02-15T18:23:40;11.43;;;4.47;;
41643;SDS011;44236;48.098;11.582;2023-02-15T18:26:08;12.73;;;4.75;;